Etusivu
METAR-TAF:

METAR-TAF

Lentoasemat :

Nador, Marokko

Leveyspiiri: 34-59-20N, Pituuspiiri: 003-01-42W, korkeus merenpinnasta: 175 m

Tämänhetkinen sää

Tämä raportti tehtiin 19 minuuttia sitten, kello 12.00 UTC
Tuuli 8 kn pohjoisesta/koillisesta, vaihdellen pohjoisen ja idän/koillisen välillä
Lämpötila 22°C
Kosteus 83%
Ilmanpaine 1018 hPa
Näkyvyys: 4000 m
Hajanaisia pilviä 1400 ft:n korkeudessa
Hajonneita pilviä 2000 ft:n korkeudessa
heikkoa sadetta

METAR: GMMW 251200Z 03008KT 350V060 4000 -RA SCT014 BKN020 22/19 Q1018 NOSIG

Aika: 13:19 (12:19 UTC)

Sääennuste

Tämä raportti tehtiin 1 tunti ja 19 minuuttia sitten, kello 11.00 UTC
Ennuste voimassa 25. päivästä klo 12 UTC - 26. päivään klo 18 UTC
Tuuli 12 kn koillisesta
Näkyvyys: 6000 m
Hajanaisia pilviä 1400 ft:n korkeudessa

TAF: GMMW 251100Z 2512/2618 04012KT 6000 SCT014

Säähavainnot ja -ennusteet yli 4000 lentoasemalta (METAR- ja TAF-raportit).

Käytössä olevat sääasemat on merkitty karttaan keltaisilla ja punaisilla pisteillä.

Aseta hiiri pisteen päälle nähdäksesi sääaseman nimen.

Klikkaa sitten nähdäksesi säähavainnot ja -ennusteet.

Kartan vaihtaminen: klikkaa mustalla rastilla varustettuja vihreitä pisteitä, niin voit zoomata sisään; viivalla varustettua vihreää pistettä, niin voit zoomata ulos tai vihreitä nuolia, niin pääset viereisille kartoille.


METAR-TAF: